sensor_id;sensor_type;location;lat;lon;timestamp;P1;durP1;ratioP1;P2;durP2;ratioP2
19554;SDS011;9924;50.828;6.440;2024-02-21T00:02:19;14.20;;;5.47;;
19554;SDS011;9924;50.828;6.440;2024-02-21T00:04:45;17.10;;;6.00;;
19554;SDS011;9924;50.828;6.440;2024-02-21T00:07:11;14.48;;;5.47;;
19554;SDS011;9924;50.828;6.440;2024-02-21T00:09:37;18.27;;;5.57;;
19554;SDS011;9924;50.828;6.440;2024-02-21T00:12:02;15.00;;;6.15;;
19554;SDS011;9924;50.828;6.440;2024-02-21T00:14:30;19.70;;;6.38;;
19554;SDS011;9924;50.828;6.440;2024-02-21T00:16:56;21.70;;;6.53;;
19554;SDS011;9924;50.828;6.440;2024-02-21T00:19:22;21.00;;;5.85;;
19554;SDS011;9924;50.828;6.440;2024-02-21T00:21:48;16.10;;;5.55;;
19554;SDS011;9924;50.828;6.440;2024-02-21T00:24:13;16.42;;;5.97;;
19554;SDS011;9924;50.828;6.440;2024-02-21T00:26:39;17.67;;;5.57;;
19554;SDS011;9924;50.828;6.440;2024-02-21T00:29:05;16.52;;;5.97;;
19554;SDS011;9924;50.828;6.440;2024-02-21T00:31:30;18.83;;;5.90;;
19554;SDS011;9924;50.828;6.440;2024-02-21T00:33:56;17.02;;;5.63;;
19554;SDS011;9924;50.828;6.440;2024-02-21T00:36:22;14.18;;;6.80;;
19554;SDS011;9924;50.828;6.440;2024-02-21T00:38:49;17.85;;;5.47;;
19554;SDS011;9924;50.828;6.440;2024-02-21T00:41:14;15.52;;;6.18;;
19554;SDS011;9924;50.828;6.440;2024-02-21T00:43:41;18.25;;;6.32;;
19554;SDS011;9924;50.828;6.440;2024-02-21T00:46:07;16.17;;;5.72;;
19554;SDS011;9924;50.828;6.440;2024-02-21T00:48:33;18.45;;;5.68;;
19554;SDS011;9924;50.828;6.440;2024-02-21T00:50:59;15.57;;;6.80;;
19554;SDS011;9924;50.828;6.440;2024-02-21T00:53:26;17.17;;;6.63;;
19554;SDS011;9924;50.828;6.440;2024-02-21T00:55:52;16.27;;;6.53;;
19554;SDS011;9924;50.828;6.440;2024-02-21T00:58:17;16.15;;;5.75;;
19554;SDS011;9924;50.828;6.440;2024-02-21T01:00:43;17.35;;;6.53;;
19554;SDS011;9924;50.828;6.440;2024-02-21T01:03:09;15.70;;;6.20;;
19554;SDS011;9924;50.828;6.440;2024-02-21T01:05:35;17.25;;;6.40;;
19554;SDS011;9924;50.828;6.440;2024-02-21T01:08:00;17.50;;;6.38;;
19554;SDS011;9924;50.828;6.440;2024-02-21T01:10:29;22.13;;;6.35;;
19554;SDS011;9924;50.828;6.440;2024-02-21T01:12:55;18.48;;;6.32;;
19554;SDS011;9924;50.828;6.440;2024-02-21T01:15:21;18.88;;;6.15;;
19554;SDS011;9924;50.828;6.440;2024-02-21T01:17:47;18.40;;;6.18;;
19554;SDS011;9924;50.828;6.440;2024-02-21T01:20:14;16.38;;;5.80;;
19554;SDS011;9924;50.828;6.440;2024-02-21T01:22:40;15.15;;;6.03;;
19554;SDS011;9924;50.828;6.440;2024-02-21T01:25:06;25.55;;;6.68;;
19554;SDS011;9924;50.828;6.440;2024-02-21T01:27:32;14.93;;;6.45;;
19554;SDS011;9924;50.828;6.440;2024-02-21T01:29:58;17.15;;;6.65;;
19554;SDS011;9924;50.828;6.440;2024-02-21T01:32:24;17.58;;;6.00;;
19554;SDS011;9924;50.828;6.440;2024-02-21T01:34:50;16.27;;;5.60;;
19554;SDS011;9924;50.828;6.440;2024-02-21T01:37:16;12.98;;;5.72;;
19554;SDS011;9924;50.828;6.440;2024-02-21T01:39:42;14.82;;;5.57;;
19554;SDS011;9924;50.828;6.440;2024-02-21T01:42:07;13.05;;;5.80;;
19554;SDS011;9924;50.828;6.440;2024-02-21T01:44:34;18.52;;;6.18;;
19554;SDS011;9924;50.828;6.440;2024-02-21T01:47:00;17.80;;;6.15;;
19554;SDS011;9924;50.828;6.440;2024-02-21T01:49:26;14.32;;;6.05;;
19554;SDS011;9924;50.828;6.440;2024-02-21T01:51:52;15.85;;;5.45;;
19554;SDS011;9924;50.828;6.440;2024-02-21T01:54:19;11.32;;;5.43;;
19554;SDS011;9924;50.828;6.440;2024-02-21T01:56:46;16.90;;;6.13;;
19554;SDS011;9924;50.828;6.440;2024-02-21T01:59:13;19.88;;;6.15;;
19554;SDS011;9924;50.828;6.440;2024-02-21T02:01:40;15.23;;;5.78;;
19554;SDS011;9924;50.828;6.440;2024-02-21T02:04:06;14.05;;;5.40;;
19554;SDS011;9924;50.828;6.440;2024-02-21T02:06:32;21.63;;;5.82;;
19554;SDS011;9924;50.828;6.440;2024-02-21T02:08:58;21.25;;;5.95;;
19554;SDS011;9924;50.828;6.440;2024-02-21T02:11:24;19.27;;;5.38;;
19554;SDS011;9924;50.828;6.440;2024-02-21T02:13:50;14.98;;;5.65;;
19554;SDS011;9924;50.828;6.440;2024-02-21T02:16:15;17.30;;;6.60;;
19554;SDS011;9924;50.828;6.440;2024-02-21T02:18:44;13.05;;;4.82;;
19554;SDS011;9924;50.828;6.440;2024-02-21T02:21:12;15.05;;;5.93;;
19554;SDS011;9924;50.828;6.440;2024-02-21T02:23:47;10.73;;;4.65;;
19554;SDS011;9924;50.828;6.440;2024-02-21T02:26:13;18.08;;;5.82;;
19554;SDS011;9924;50.828;6.440;2024-02-21T02:28:38;15.07;;;4.50;;
19554;SDS011;9924;50.828;6.440;2024-02-21T02:31:04;13.23;;;5.35;;
19554;SDS011;9924;50.828;6.440;2024-02-21T02:33:31;11.98;;;4.55;;
19554;SDS011;9924;50.828;6.440;2024-02-21T02:35:57;21.52;;;5.20;;
19554;SDS011;9924;50.828;6.440;2024-02-21T02:38:24;13.48;;;5.18;;
19554;SDS011;9924;50.828;6.440;2024-02-21T02:40:49;14.52;;;4.80;;
19554;SDS011;9924;50.828;6.440;2024-02-21T02:43:15;16.90;;;5.38;;
19554;SDS011;9924;50.828;6.440;2024-02-21T02:45:41;14.32;;;4.75;;
19554;SDS011;9924;50.828;6.440;2024-02-21T02:48:07;13.90;;;5.07;;
19554;SDS011;9924;50.828;6.440;2024-02-21T02:50:33;16.05;;;4.53;;
19554;SDS011;9924;50.828;6.440;2024-02-21T02:52:58;15.80;;;4.50;;
19554;SDS011;9924;50.828;6.440;2024-02-21T02:55:24;11.75;;;4.18;;
19554;SDS011;9924;50.828;6.440;2024-02-21T02:57:51;9.88;;;4.72;;
19554;SDS011;9924;50.828;6.440;2024-02-21T03:00:17;10.18;;;3.85;;
19554;SDS011;9924;50.828;6.440;2024-02-21T03:02:44;7.93;;;3.88;;
19554;SDS011;9924;50.828;6.440;2024-02-21T03:05:14;38.55;;;13.35;;
19554;SDS011;9924;50.828;6.440;2024-02-21T03:07:47;137.60;;;35.38;;
19554;SDS011;9924;50.828;6.440;2024-02-21T03:10:14;533.83;;;157.13;;
19554;SDS011;9924;50.828;6.440;2024-02-21T03:12:41;325.90;;;82.35;;
19554;SDS011;9924;50.828;6.440;2024-02-21T03:15:07;198.98;;;48.33;;
19554;SDS011;9924;50.828;6.440;2024-02-21T03:17:33;15.60;;;6.85;;
19554;SDS011;9924;50.828;6.440;2024-02-21T03:19:59;10.30;;;4.20;;
19554;SDS011;9924;50.828;6.440;2024-02-21T03:22:29;12.73;;;4.72;;
19554;SDS011;9924;50.828;6.440;2024-02-21T03:24:55;11.48;;;4.28;;
19554;SDS011;9924;50.828;6.440;2024-02-21T03:27:21;12.52;;;4.53;;
19554;SDS011;9924;50.828;6.440;2024-02-21T03:29:47;114.70;;;30.75;;
19554;SDS011;9924;50.828;6.440;2024-02-21T03:32:13;46.75;;;16.80;;
19554;SDS011;9924;50.828;6.440;2024-02-21T03:34:38;12.88;;;4.47;;
19554;SDS011;9924;50.828;6.440;2024-02-21T03:37:04;10.38;;;4.78;;
19554;SDS011;9924;50.828;6.440;2024-02-21T03:39:33;13.23;;;4.10;;
19554;SDS011;9924;50.828;6.440;2024-02-21T03:41:58;41.10;;;13.93;;
19554;SDS011;9924;50.828;6.440;2024-02-21T03:44:30;13.77;;;5.15;;
19554;SDS011;9924;50.828;6.440;2024-02-21T03:46:56;16.50;;;4.95;;
19554;SDS011;9924;50.828;6.440;2024-02-21T03:49:22;12.00;;;4.35;;
19554;SDS011;9924;50.828;6.440;2024-02-21T03:51:48;13.85;;;4.25;;
19554;SDS011;9924;50.828;6.440;2024-02-21T03:54:14;15.80;;;4.90;;
19554;SDS011;9924;50.828;6.440;2024-02-21T03:56:40;16.08;;;4.50;;
19554;SDS011;9924;50.828;6.440;2024-02-21T03:59:08;14.35;;;4.35;;
19554;SDS011;9924;50.828;6.440;2024-02-21T04:01:34;7.53;;;4.47;;
19554;SDS011;9924;50.828;6.440;2024-02-21T04:04:01;9.13;;;4.72;;
19554;SDS011;9924;50.828;6.440;2024-02-21T04:06:27;12.68;;;4.45;;
19554;SDS011;9924;50.828;6.440;2024-02-21T04:08:53;10.88;;;4.32;;
19554;SDS011;9924;50.828;6.440;2024-02-21T04:11:19;17.48;;;4.88;;
19554;SDS011;9924;50.828;6.440;2024-02-21T04:13:45;16.88;;;4.43;;
19554;SDS011;9924;50.828;6.440;2024-02-21T04:16:13;12.88;;;5.20;;
19554;SDS011;9924;50.828;6.440;2024-02-21T04:18:39;13.65;;;4.55;;
19554;SDS011;9924;50.828;6.440;2024-02-21T04:21:05;11.02;;;4.03;;
19554;SDS011;9924;50.828;6.440;2024-02-21T04:23:31;10.63;;;4.30;;
19554;SDS011;9924;50.828;6.440;2024-02-21T04:25:57;16.60;;;4.85;;
19554;SDS011;9924;50.828;6.440;2024-02-21T04:28:22;9.98;;;4.15;;
19554;SDS011;9924;50.828;6.440;2024-02-21T04:30:48;13.68;;;4.57;;
19554;SDS011;9924;50.828;6.440;2024-02-21T04:33:15;8.43;;;4.13;;
19554;SDS011;9924;50.828;6.440;2024-02-21T04:35:41;11.18;;;4.45;;
19554;SDS011;9924;50.828;6.440;2024-02-21T04:38:06;9.73;;;4.78;;
19554;SDS011;9924;50.828;6.440;2024-02-21T04:40:32;11.70;;;4.70;;
19554;SDS011;9924;50.828;6.440;2024-02-21T04:42:59;12.93;;;4.35;;
19554;SDS011;9924;50.828;6.440;2024-02-21T04:45:25;12.73;;;4.40;;
19554;SDS011;9924;50.828;6.440;2024-02-21T04:47:50;11.77;;;3.95;;
19554;SDS011;9924;50.828;6.440;2024-02-21T04:50:16;14.82;;;4.35;;
19554;SDS011;9924;50.828;6.440;2024-02-21T04:52:42;15.07;;;4.65;;
19554;SDS011;9924;50.828;6.440;2024-02-21T04:55:08;14.98;;;4.60;;
19554;SDS011;9924;50.828;6.440;2024-02-21T04:57:34;11.25;;;3.75;;
19554;SDS011;9924;50.828;6.440;2024-02-21T05:00:00;14.52;;;4.60;;
19554;SDS011;9924;50.828;6.440;2024-02-21T05:02:26;10.45;;;4.53;;
19554;SDS011;9924;50.828;6.440;2024-02-21T05:04:52;14.43;;;4.68;;
19554;SDS011;9924;50.828;6.440;2024-02-21T05:07:18;13.48;;;4.22;;
19554;SDS011;9924;50.828;6.440;2024-02-21T05:09:44;10.98;;;4.70;;
19554;SDS011;9924;50.828;6.440;2024-02-21T05:12:11;11.32;;;4.47;;
19554;SDS011;9924;50.828;6.440;2024-02-21T05:14:37;10.50;;;4.15;;
19554;SDS011;9924;50.828;6.440;2024-02-21T05:17:03;9.43;;;4.53;;
19554;SDS011;9924;50.828;6.440;2024-02-21T05:19:29;12.55;;;4.80;;
19554;SDS011;9924;50.828;6.440;2024-02-21T05:21:55;11.13;;;3.70;;
19554;SDS011;9924;50.828;6.440;2024-02-21T05:24:27;19.73;;;4.93;;
19554;SDS011;9924;50.828;6.440;2024-02-21T05:26:54;13.27;;;3.88;;
19554;SDS011;9924;50.828;6.440;2024-02-21T05:29:20;13.88;;;4.65;;
19554;SDS011;9924;50.828;6.440;2024-02-21T05:34:21;8.95;;;4.00;;
19554;SDS011;9924;50.828;6.440;2024-02-21T05:36:47;17.60;;;4.22;;
19554;SDS011;9924;50.828;6.440;2024-02-21T05:39:14;11.10;;;4.00;;
19554;SDS011;9924;50.828;6.440;2024-02-21T05:41:44;16.45;;;4.03;;
19554;SDS011;9924;50.828;6.440;2024-02-21T05:44:10;11.50;;;5.88;;
19554;SDS011;9924;50.828;6.440;2024-02-21T05:46:36;17.05;;;3.55;;
19554;SDS011;9924;50.828;6.440;2024-02-21T05:49:02;13.30;;;4.10;;
19554;SDS011;9924;50.828;6.440;2024-02-21T05:51:28;13.50;;;4.05;;
19554;SDS011;9924;50.828;6.440;2024-02-21T05:53:57;10.63;;;3.50;;
19554;SDS011;9924;50.828;6.440;2024-02-21T05:56:23;10.68;;;3.53;;
19554;SDS011;9924;50.828;6.440;2024-02-21T05:58:48;13.15;;;4.70;;
19554;SDS011;9924;50.828;6.440;2024-02-21T06:01:14;11.30;;;3.70;;
19554;SDS011;9924;50.828;6.440;2024-02-21T06:03:40;10.40;;;3.70;;
19554;SDS011;9924;50.828;6.440;2024-02-21T06:06:05;9.90;;;3.60;;
19554;SDS011;9924;50.828;6.440;2024-02-21T06:08:31;8.32;;;3.80;;
19554;SDS011;9924;50.828;6.440;2024-02-21T06:10:57;9.40;;;3.28;;
19554;SDS011;9924;50.828;6.440;2024-02-21T06:13:23;12.63;;;4.25;;
19554;SDS011;9924;50.828;6.440;2024-02-21T06:15:49;11.48;;;3.05;;
19554;SDS011;9924;50.828;6.440;2024-02-21T06:18:16;10.48;;;3.47;;
19554;SDS011;9924;50.828;6.440;2024-02-21T06:20:43;10.13;;;3.15;;
19554;SDS011;9924;50.828;6.440;2024-02-21T06:23:09;14.55;;;3.85;;
19554;SDS011;9924;50.828;6.440;2024-02-21T06:25:35;10.02;;;3.25;;
19554;SDS011;9924;50.828;6.440;2024-02-21T06:28:00;8.18;;;3.20;;
19554;SDS011;9924;50.828;6.440;2024-02-21T06:30:26;12.38;;;5.28;;
19554;SDS011;9924;50.828;6.440;2024-02-21T06:32:52;11.88;;;3.67;;
19554;SDS011;9924;50.828;6.440;2024-02-21T06:35:21;10.77;;;3.78;;
19554;SDS011;9924;50.828;6.440;2024-02-21T06:37:47;15.40;;;3.95;;
19554;SDS011;9924;50.828;6.440;2024-02-21T06:40:16;14.93;;;3.80;;
19554;SDS011;9924;50.828;6.440;2024-02-21T06:42:42;10.73;;;3.22;;
19554;SDS011;9924;50.828;6.440;2024-02-21T06:45:08;14.07;;;3.33;;
19554;SDS011;9924;50.828;6.440;2024-02-21T06:47:34;14.05;;;3.75;;
19554;SDS011;9924;50.828;6.440;2024-02-21T06:50:00;9.80;;;3.85;;
19554;SDS011;9924;50.828;6.440;2024-02-21T06:52:26;11.98;;;3.20;;
19554;SDS011;9924;50.828;6.440;2024-02-21T06:54:51;13.82;;;3.30;;
19554;SDS011;9924;50.828;6.440;2024-02-21T06:57:17;11.20;;;3.28;;
19554;SDS011;9924;50.828;6.440;2024-02-21T06:59:43;11.90;;;3.50;;
19554;SDS011;9924;50.828;6.440;2024-02-21T07:02:12;10.35;;;3.17;;
19554;SDS011;9924;50.828;6.440;2024-02-21T07:04:37;14.73;;;3.17;;
19554;SDS011;9924;50.828;6.440;2024-02-21T07:07:03;10.63;;;3.17;;
19554;SDS011;9924;50.828;6.440;2024-02-21T07:09:29;9.77;;;2.83;;
19554;SDS011;9924;50.828;6.440;2024-02-21T07:11:57;11.55;;;3.03;;
19554;SDS011;9924;50.828;6.440;2024-02-21T07:14:23;15.65;;;3.45;;
19554;SDS011;9924;50.828;6.440;2024-02-21T07:16:53;10.10;;;3.35;;
19554;SDS011;9924;50.828;6.440;2024-02-21T07:19:22;7.85;;;2.83;;
19554;SDS011;9924;50.828;6.440;2024-02-21T07:21:48;14.07;;;3.70;;
19554;SDS011;9924;50.828;6.440;2024-02-21T07:24:14;10.68;;;3.03;;
19554;SDS011;9924;50.828;6.440;2024-02-21T07:26:43;16.00;;;3.33;;
19554;SDS011;9924;50.828;6.440;2024-02-21T07:29:09;11.88;;;3.28;;
19554;SDS011;9924;50.828;6.440;2024-02-21T07:31:38;12.18;;;3.78;;
19554;SDS011;9924;50.828;6.440;2024-02-21T07:34:10;11.63;;;3.63;;
19554;SDS011;9924;50.828;6.440;2024-02-21T07:36:36;11.93;;;3.45;;
19554;SDS011;9924;50.828;6.440;2024-02-21T07:39:08;13.77;;;3.30;;
19554;SDS011;9924;50.828;6.440;2024-02-21T07:41:33;10.82;;;4.30;;
19554;SDS011;9924;50.828;6.440;2024-02-21T07:43:59;9.68;;;3.33;;
19554;SDS011;9924;50.828;6.440;2024-02-21T07:46:25;9.02;;;3.10;;
19554;SDS011;9924;50.828;6.440;2024-02-21T07:48:51;4.32;;;2.58;;
19554;SDS011;9924;50.828;6.440;2024-02-21T07:51:17;7.65;;;2.67;;
19554;SDS011;9924;50.828;6.440;2024-02-21T07:53:43;8.02;;;2.95;;
19554;SDS011;9924;50.828;6.440;2024-02-21T07:56:10;6.80;;;2.72;;
19554;SDS011;9924;50.828;6.440;2024-02-21T07:58:40;8.70;;;3.25;;
19554;SDS011;9924;50.828;6.440;2024-02-21T08:01:08;8.05;;;3.17;;
19554;SDS011;9924;50.828;6.440;2024-02-21T08:03:35;6.95;;;2.50;;
19554;SDS011;9924;50.828;6.440;2024-02-21T08:06:02;6.78;;;2.42;;
19554;SDS011;9924;50.828;6.440;2024-02-21T08:08:28;8.45;;;2.38;;
19554;SDS011;9924;50.828;6.440;2024-02-21T08:10:53;5.32;;;2.53;;
19554;SDS011;9924;50.828;6.440;2024-02-21T08:13:19;8.10;;;2.75;;
19554;SDS011;9924;50.828;6.440;2024-02-21T08:15:46;8.77;;;3.13;;
19554;SDS011;9924;50.828;6.440;2024-02-21T08:18:11;7.18;;;2.50;;
19554;SDS011;9924;50.828;6.440;2024-02-21T08:20:37;9.73;;;2.90;;
19554;SDS011;9924;50.828;6.440;2024-02-21T08:23:03;6.13;;;2.72;;
19554;SDS011;9924;50.828;6.440;2024-02-21T08:25:29;8.68;;;2.58;;
19554;SDS011;9924;50.828;6.440;2024-02-21T08:27:56;5.25;;;2.38;;
19554;SDS011;9924;50.828;6.440;2024-02-21T08:30:23;11.63;;;3.08;;
19554;SDS011;9924;50.828;6.440;2024-02-21T08:32:49;7.00;;;3.05;;
19554;SDS011;9924;50.828;6.440;2024-02-21T08:35:15;7.03;;;2.75;;
19554;SDS011;9924;50.828;6.440;2024-02-21T08:37:44;6.18;;;2.35;;
19554;SDS011;9924;50.828;6.440;2024-02-21T08:40:13;4.25;;;2.38;;
19554;SDS011;9924;50.828;6.440;2024-02-21T08:42:42;8.02;;;2.83;;
19554;SDS011;9924;50.828;6.440;2024-02-21T08:45:09;5.30;;;2.50;;
19554;SDS011;9924;50.828;6.440;2024-02-21T08:47:35;7.15;;;2.55;;
19554;SDS011;9924;50.828;6.440;2024-02-21T08:50:02;9.77;;;2.67;;
19554;SDS011;9924;50.828;6.440;2024-02-21T08:52:28;6.63;;;3.03;;
19554;SDS011;9924;50.828;6.440;2024-02-21T08:54:53;4.18;;;2.45;;
19554;SDS011;9924;50.828;6.440;2024-02-21T08:57:19;7.75;;;2.75;;
19554;SDS011;9924;50.828;6.440;2024-02-21T08:59:45;8.52;;;2.47;;
19554;SDS011;9924;50.828;6.440;2024-02-21T09:02:12;12.68;;;2.65;;
19554;SDS011;9924;50.828;6.440;2024-02-21T09:04:38;8.07;;;3.13;;
19554;SDS011;9924;50.828;6.440;2024-02-21T09:07:04;8.00;;;2.63;;
19554;SDS011;9924;50.828;6.440;2024-02-21T09:09:29;9.63;;;2.85;;
19554;SDS011;9924;50.828;6.440;2024-02-21T09:11:56;5.25;;;2.55;;
19554;SDS011;9924;50.828;6.440;2024-02-21T09:14:22;6.35;;;2.40;;
19554;SDS011;9924;50.828;6.440;2024-02-21T09:16:48;5.97;;;2.33;;
19554;SDS011;9924;50.828;6.440;2024-02-21T09:19:13;9.95;;;2.35;;
19554;SDS011;9924;50.828;6.440;2024-02-21T09:21:39;9.55;;;2.13;;
19554;SDS011;9924;50.828;6.440;2024-02-21T09:24:05;7.18;;;2.42;;
19554;SDS011;9924;50.828;6.440;2024-02-21T09:26:31;10.52;;;2.47;;
19554;SDS011;9924;50.828;6.440;2024-02-21T09:28:57;10.80;;;2.40;;
19554;SDS011;9924;50.828;6.440;2024-02-21T09:31:23;6.05;;;2.47;;
19554;SDS011;9924;50.828;6.440;2024-02-21T09:33:48;7.38;;;2.42;;
19554;SDS011;9924;50.828;6.440;2024-02-21T09:36:14;8.27;;;2.50;;
19554;SDS011;9924;50.828;6.440;2024-02-21T09:38:40;5.63;;;2.10;;
19554;SDS011;9924;50.828;6.440;2024-02-21T09:41:18;6.40;;;1.70;;
19554;SDS011;9924;50.828;6.440;2024-02-21T09:43:54;5.25;;;2.03;;
19554;SDS011;9924;50.828;6.440;2024-02-21T09:46:35;5.43;;;1.70;;
19554;SDS011;9924;50.828;6.440;2024-02-21T09:49:21;10.55;;;2.15;;
19554;SDS011;9924;50.828;6.440;2024-02-21T09:51:51;3.47;;;1.75;;
19554;SDS011;9924;50.828;6.440;2024-02-21T09:54:20;4.03;;;2.00;;
19554;SDS011;9924;50.828;6.440;2024-02-21T09:56:47;8.23;;;1.90;;
19554;SDS011;9924;50.828;6.440;2024-02-21T09:59:16;8.27;;;2.40;;
19554;SDS011;9924;50.828;6.440;2024-02-21T10:01:42;6.35;;;2.38;;
19554;SDS011;9924;50.828;6.440;2024-02-21T10:04:12;5.72;;;2.15;;
19554;SDS011;9924;50.828;6.440;2024-02-21T10:06:41;5.22;;;2.08;;
19554;SDS011;9924;50.828;6.440;2024-02-21T10:09:19;5.85;;;2.17;;
19554;SDS011;9924;50.828;6.440;2024-02-21T10:12:11;6.28;;;2.47;;
19554;SDS011;9924;50.828;6.440;2024-02-21T10:14:37;9.27;;;2.53;;
19554;SDS011;9924;50.828;6.440;2024-02-21T10:17:05;5.68;;;2.22;;
19554;SDS011;9924;50.828;6.440;2024-02-21T10:19:34;6.45;;;2.05;;
19554;SDS011;9924;50.828;6.440;2024-02-21T10:22:09;5.43;;;2.10;;
19554;SDS011;9924;50.828;6.440;2024-02-21T10:24:35;8.35;;;2.28;;
19554;SDS011;9924;50.828;6.440;2024-02-21T10:27:08;11.10;;;2.67;;
19554;SDS011;9924;50.828;6.440;2024-02-21T10:29:48;5.95;;;2.15;;
19554;SDS011;9924;50.828;6.440;2024-02-21T10:32:15;6.35;;;1.90;;
19554;SDS011;9924;50.828;6.440;2024-02-21T10:34:41;7.30;;;1.90;;
19554;SDS011;9924;50.828;6.440;2024-02-21T10:37:08;8.13;;;1.80;;
19554;SDS011;9924;50.828;6.440;2024-02-21T10:39:36;7.18;;;2.10;;
19554;SDS011;9924;50.828;6.440;2024-02-21T10:42:06;6.47;;;2.08;;
19554;SDS011;9924;50.828;6.440;2024-02-21T10:44:34;8.02;;;2.47;;
19554;SDS011;9924;50.828;6.440;2024-02-21T10:47:10;7.10;;;2.30;;
19554;SDS011;9924;50.828;6.440;2024-02-21T10:49:41;8.70;;;2.05;;
19554;SDS011;9924;50.828;6.440;2024-02-21T10:52:13;5.07;;;2.20;;
19554;SDS011;9924;50.828;6.440;2024-02-21T10:54:48;7.05;;;2.08;;
19554;SDS011;9924;50.828;6.440;2024-02-21T10:57:22;6.18;;;2.20;;
19554;SDS011;9924;50.828;6.440;2024-02-21T10:59:48;6.45;;;1.70;;
19554;SDS011;9924;50.828;6.440;2024-02-21T11:02:15;5.78;;;1.80;;
19554;SDS011;9924;50.828;6.440;2024-02-21T11:04:41;4.28;;;1.70;;
19554;SDS011;9924;50.828;6.440;2024-02-21T11:07:08;5.38;;;2.42;;
19554;SDS011;9924;50.828;6.440;2024-02-21T11:09:34;4.95;;;1.60;;
19554;SDS011;9924;50.828;6.440;2024-02-21T11:12:02;8.25;;;2.13;;
19554;SDS011;9924;50.828;6.440;2024-02-21T11:14:31;8.48;;;1.92;;
19554;SDS011;9924;50.828;6.440;2024-02-21T11:16:58;6.13;;;3.00;;
19554;SDS011;9924;50.828;6.440;2024-02-21T11:19:27;3.95;;;1.88;;
19554;SDS011;9924;50.828;6.440;2024-02-21T11:21:55;5.63;;;1.63;;
19554;SDS011;9924;50.828;6.440;2024-02-21T11:24:29;9.20;;;2.13;;
19554;SDS011;9924;50.828;6.440;2024-02-21T11:29:44;10.55;;;2.53;;
19554;SDS011;9924;50.828;6.440;2024-02-21T11:32:10;3.55;;;2.08;;
19554;SDS011;9924;50.828;6.440;2024-02-21T11:34:37;8.05;;;2.80;;
19554;SDS011;9924;50.828;6.440;2024-02-21T11:37:12;7.85;;;2.58;;
19554;SDS011;9924;50.828;6.440;2024-02-21T11:39:43;5.80;;;2.80;;
19554;SDS011;9924;50.828;6.440;2024-02-21T11:42:09;7.47;;;3.00;;
19554;SDS011;9924;50.828;6.440;2024-02-21T11:44:35;9.50;;;3.53;;
19554;SDS011;9924;50.828;6.440;2024-02-21T11:47:07;9.15;;;2.50;;
19554;SDS011;9924;50.828;6.440;2024-02-21T11:49:37;9.30;;;2.97;;
19554;SDS011;9924;50.828;6.440;2024-02-21T11:52:04;9.75;;;2.55;;
19554;SDS011;9924;50.828;6.440;2024-02-21T11:54:31;8.77;;;2.47;;
19554;SDS011;9924;50.828;6.440;2024-02-21T11:56:56;11.43;;;2.45;;
19554;SDS011;9924;50.828;6.440;2024-02-21T11:59:22;8.15;;;1.95;;
19554;SDS011;9924;50.828;6.440;2024-02-21T12:01:48;7.82;;;1.98;;
19554;SDS011;9924;50.828;6.440;2024-02-21T12:04:16;6.55;;;2.15;;
19554;SDS011;9924;50.828;6.440;2024-02-21T12:06:44;7.38;;;2.20;;
19554;SDS011;9924;50.828;6.440;2024-02-21T12:09:13;5.25;;;2.20;;
19554;SDS011;9924;50.828;6.440;2024-02-21T12:11:43;7.38;;;2.47;;
19554;SDS011;9924;50.828;6.440;2024-02-21T12:14:09;5.20;;;2.70;;
19554;SDS011;9924;50.828;6.440;2024-02-21T12:16:35;6.45;;;2.55;;
19554;SDS011;9924;50.828;6.440;2024-02-21T12:19:04;6.10;;;2.17;;
19554;SDS011;9924;50.828;6.440;2024-02-21T12:21:30;6.50;;;2.28;;
19554;SDS011;9924;50.828;6.440;2024-02-21T12:24:00;5.95;;;2.22;;
19554;SDS011;9924;50.828;6.440;2024-02-21T12:26:40;5.82;;;2.40;;
19554;SDS011;9924;50.828;6.440;2024-02-21T12:29:15;10.27;;;2.72;;
19554;SDS011;9924;50.828;6.440;2024-02-21T12:31:41;7.43;;;2.60;;
19554;SDS011;9924;50.828;6.440;2024-02-21T12:34:07;6.85;;;2.67;;
19554;SDS011;9924;50.828;6.440;2024-02-21T12:36:35;10.05;;;2.63;;
19554;SDS011;9924;50.828;6.440;2024-02-21T12:39:07;6.38;;;2.30;;
19554;SDS011;9924;50.828;6.440;2024-02-21T12:41:33;7.40;;;2.70;;
19554;SDS011;9924;50.828;6.440;2024-02-21T12:44:03;4.38;;;2.42;;
19554;SDS011;9924;50.828;6.440;2024-02-21T12:46:31;6.10;;;2.47;;
19554;SDS011;9924;50.828;6.440;2024-02-21T12:48:58;5.53;;;2.70;;
19554;SDS011;9924;50.828;6.440;2024-02-21T12:51:23;7.43;;;2.58;;
19554;SDS011;9924;50.828;6.440;2024-02-21T12:53:49;5.20;;;2.38;;
19554;SDS011;9924;50.828;6.440;2024-02-21T12:56:15;8.88;;;2.40;;
19554;SDS011;9924;50.828;6.440;2024-02-21T12:58:42;5.80;;;2.20;;
19554;SDS011;9924;50.828;6.440;2024-02-21T13:01:08;6.85;;;2.20;;
19554;SDS011;9924;50.828;6.440;2024-02-21T13:03:34;6.43;;;1.95;;
19554;SDS011;9924;50.828;6.440;2024-02-21T13:05:59;6.82;;;2.10;;
19554;SDS011;9924;50.828;6.440;2024-02-21T13:08:25;7.13;;;3.03;;
19554;SDS011;9924;50.828;6.440;2024-02-21T13:10:51;4.90;;;2.35;;
19554;SDS011;9924;50.828;6.440;2024-02-21T13:13:17;6.25;;;2.10;;
19554;SDS011;9924;50.828;6.440;2024-02-21T13:15:43;8.35;;;2.47;;
19554;SDS011;9924;50.828;6.440;2024-02-21T13:18:09;7.70;;;2.60;;
19554;SDS011;9924;50.828;6.440;2024-02-21T13:20:35;6.57;;;2.17;;
19554;SDS011;9924;50.828;6.440;2024-02-21T13:23:02;7.65;;;2.35;;
19554;SDS011;9924;50.828;6.440;2024-02-21T13:25:28;8.52;;;2.58;;
19554;SDS011;9924;50.828;6.440;2024-02-21T13:27:54;5.50;;;2.88;;
19554;SDS011;9924;50.828;6.440;2024-02-21T13:30:20;7.25;;;2.75;;
19554;SDS011;9924;50.828;6.440;2024-02-21T13:32:50;7.40;;;2.30;;
19554;SDS011;9924;50.828;6.440;2024-02-21T13:35:16;7.88;;;2.38;;
19554;SDS011;9924;50.828;6.440;2024-02-21T13:37:42;5.53;;;2.58;;
19554;SDS011;9924;50.828;6.440;2024-02-21T13:40:08;8.23;;;2.83;;
19554;SDS011;9924;50.828;6.440;2024-02-21T13:42:35;6.75;;;2.42;;
19554;SDS011;9924;50.828;6.440;2024-02-21T13:45:01;7.55;;;2.60;;
19554;SDS011;9924;50.828;6.440;2024-02-21T13:47:28;10.10;;;2.83;;
19554;SDS011;9924;50.828;6.440;2024-02-21T13:49:54;7.50;;;2.50;;
19554;SDS011;9924;50.828;6.440;2024-02-21T13:52:20;8.95;;;3.40;;
19554;SDS011;9924;50.828;6.440;2024-02-21T13:54:47;7.90;;;2.75;;
19554;SDS011;9924;50.828;6.440;2024-02-21T13:57:13;7.30;;;2.90;;
19554;SDS011;9924;50.828;6.440;2024-02-21T13:59:39;7.22;;;2.55;;
19554;SDS011;9924;50.828;6.440;2024-02-21T14:02:05;8.60;;;2.78;;
19554;SDS011;9924;50.828;6.440;2024-02-21T14:04:34;8.25;;;2.45;;
19554;SDS011;9924;50.828;6.440;2024-02-21T14:07:00;10.75;;;2.88;;
19554;SDS011;9924;50.828;6.440;2024-02-21T14:09:26;9.07;;;2.90;;
19554;SDS011;9924;50.828;6.440;2024-02-21T14:11:52;3.55;;;2.00;;
19554;SDS011;9924;50.828;6.440;2024-02-21T14:14:17;5.35;;;1.73;;
19554;SDS011;9924;50.828;6.440;2024-02-21T14:16:43;10.23;;;2.15;;
19554;SDS011;9924;50.828;6.440;2024-02-21T14:19:09;5.82;;;1.90;;
19554;SDS011;9924;50.828;6.440;2024-02-21T14:21:36;6.72;;;2.35;;
19554;SDS011;9924;50.828;6.440;2024-02-21T14:24:03;6.03;;;2.28;;
19554;SDS011;9924;50.828;6.440;2024-02-21T14:26:29;3.72;;;1.75;;
19554;SDS011;9924;50.828;6.440;2024-02-21T14:28:58;5.25;;;1.48;;
19554;SDS011;9924;50.828;6.440;2024-02-21T14:31:24;5.13;;;1.80;;
19554;SDS011;9924;50.828;6.440;2024-02-21T14:33:50;6.47;;;1.60;;
19554;SDS011;9924;50.828;6.440;2024-02-21T14:36:16;5.47;;;2.10;;
19554;SDS011;9924;50.828;6.440;2024-02-21T14:38:42;4.03;;;1.75;;
19554;SDS011;9924;50.828;6.440;2024-02-21T14:41:08;3.10;;;1.30;;
19554;SDS011;9924;50.828;6.440;2024-02-21T14:43:37;3.35;;;1.35;;
19554;SDS011;9924;50.828;6.440;2024-02-21T14:46:03;4.43;;;1.77;;
19554;SDS011;9924;50.828;6.440;2024-02-21T14:48:30;7.35;;;1.65;;
19554;SDS011;9924;50.828;6.440;2024-02-21T14:50:57;3.95;;;1.52;;
19554;SDS011;9924;50.828;6.440;2024-02-21T14:53:23;2.25;;;1.27;;
19554;SDS011;9924;50.828;6.440;2024-02-21T14:55:49;4.55;;;1.70;;
19554;SDS011;9924;50.828;6.440;2024-02-21T14:58:16;6.55;;;1.50;;